createdAt,value
2019-02-15T00:00:27.032Z,3.87
2019-02-15T00:01:27.017Z,3.87
2019-02-15T00:02:26.994Z,3.88
2019-02-15T00:03:26.980Z,3.84
2019-02-15T00:04:26.969Z,3.81
2019-02-15T00:05:26.952Z,3.84
2019-02-15T00:06:26.978Z,3.86
2019-02-15T00:07:26.932Z,3.81
2019-02-15T00:08:26.923Z,3.83
2019-02-15T00:09:26.937Z,3.77
2019-02-15T00:10:26.897Z,3.78
2019-02-15T00:11:26.892Z,3.77
2019-02-15T00:12:26.905Z,3.69
2019-02-15T00:13:26.874Z,3.77
2019-02-15T00:14:26.857Z,3.63
2019-02-15T00:15:26.886Z,3.73
2019-02-15T00:16:26.832Z,3.66
2019-02-15T00:17:26.851Z,3.73
2019-02-15T00:18:26.818Z,3.66
2019-02-15T00:19:26.805Z,3.69
2019-02-15T00:20:26.789Z,3.56
2019-02-15T00:21:26.783Z,3.45
2019-02-15T00:22:26.796Z,3.51
2019-02-15T00:23:26.754Z,3.47
2019-02-15T00:24:26.745Z,3.40
2019-02-15T00:25:26.738Z,3.29
2019-02-15T00:26:26.743Z,3.25
2019-02-15T00:27:26.714Z,3.23
2019-02-15T00:28:26.729Z,3.29
2019-02-15T00:29:26.688Z,3.18
2019-02-15T00:30:26.725Z,3.29
2019-02-15T00:31:26.686Z,3.32
2019-02-15T00:32:26.654Z,3.37
2019-02-15T00:33:26.676Z,3.42
2019-02-15T00:34:26.654Z,3.41
2019-02-15T00:35:26.624Z,3.41
2019-02-15T00:36:26.610Z,3.44
2019-02-15T00:37:26.600Z,3.50
2019-02-15T00:38:26.598Z,3.41
2019-02-15T00:39:26.599Z,3.48
2019-02-15T00:40:26.591Z,3.44
2019-02-15T00:41:26.556Z,3.44
2019-02-15T00:42:26.554Z,3.41
2019-02-15T00:43:26.538Z,3.37
2019-02-15T00:44:26.554Z,3.32
2019-02-15T00:45:26.532Z,3.36
2019-02-15T00:46:26.504Z,3.34
2019-02-15T00:47:26.546Z,3.32
2019-02-15T00:48:26.488Z,3.36
2019-02-15T00:49:26.479Z,3.31
2019-02-15T00:50:26.457Z,3.31
2019-02-15T00:51:26.445Z,3.31
2019-02-15T00:52:26.434Z,3.22
2019-02-15T00:53:26.445Z,3.28
2019-02-15T00:54:26.413Z,3.21
2019-02-15T00:55:26.423Z,3.25
2019-02-15T00:56:26.395Z,3.29
2019-02-15T00:57:26.378Z,3.26
2019-02-15T00:58:26.395Z,3.25
2019-02-15T00:59:26.362Z,3.23
2019-02-15T01:00:26.344Z,3.34
2019-02-15T01:01:26.338Z,3.26
2019-02-15T01:02:26.326Z,3.23
2019-02-15T01:03:26.330Z,3.25
2019-02-15T01:04:26.326Z,3.28
2019-02-15T01:05:26.293Z,3.28
2019-02-15T01:06:26.286Z,3.31
2019-02-15T01:07:26.266Z,3.25
2019-02-15T01:08:26.268Z,3.23
2019-02-15T01:09:26.276Z,3.22
2019-02-15T01:10:26.232Z,3.18
2019-02-15T01:11:26.228Z,3.25
2019-02-15T01:12:26.218Z,3.22
2019-02-15T01:13:31.051Z,3.23
2019-02-15T01:14:27.224Z,3.22
2019-02-15T01:15:26.183Z,3.21
2019-02-15T01:16:26.167Z,3.23
2019-02-15T01:17:26.160Z,3.22
2019-02-15T01:18:26.142Z,3.22
2019-02-15T01:19:26.135Z,3.21
2019-02-15T01:20:26.145Z,3.21
2019-02-15T01:21:26.112Z,3.21
2019-02-15T01:22:26.099Z,3.22
2019-02-15T01:23:26.116Z,3.14
2019-02-15T01:24:26.075Z,3.18
2019-02-15T01:25:26.107Z,3.19
2019-02-15T01:26:26.060Z,3.23
2019-02-15T01:27:26.047Z,3.28
2019-02-15T01:28:26.045Z,3.14
2019-02-15T01:29:26.026Z,3.18
2019-02-15T01:30:26.060Z,3.19
2019-02-15T01:31:26.023Z,3.19
2019-02-15T01:32:25.991Z,3.11
2019-02-15T01:33:25.984Z,3.14
2019-02-15T01:34:25.975Z,3.14
2019-02-15T01:35:25.960Z,3.10
2019-02-15T01:36:25.982Z,3.07
2019-02-15T01:37:25.943Z,3.14
2019-02-15T01:38:25.927Z,3.14
2019-02-15T01:39:25.916Z,3.08
2019-02-15T01:40:25.911Z,3.10
2019-02-15T01:41:25.892Z,3.10
2019-02-15T01:42:25.898Z,3.07
2019-02-15T01:43:25.876Z,3.07
2019-02-15T01:44:25.862Z,3.10
2019-02-15T01:45:25.878Z,3.01
2019-02-15T01:46:25.840Z,3.13
2019-02-15T01:47:25.868Z,3.08
2019-02-15T01:48:25.812Z,3.05
2019-02-15T01:49:25.804Z,3.08
2019-02-15T01:50:25.793Z,3.04
2019-02-15T01:51:25.800Z,3.00
2019-02-15T01:52:25.773Z,3.00
2019-02-15T01:53:25.774Z,2.97
2019-02-15T01:54:25.746Z,2.97
2019-02-15T01:55:25.746Z,2.83
2019-02-15T01:56:25.729Z,2.83
2019-02-15T01:57:25.712Z,2.95
2019-02-15T01:58:25.736Z,2.85
2019-02-15T01:59:25.691Z,2.85
2019-02-15T02:00:25.682Z,2.87
2019-02-15T02:01:25.690Z,2.87
2019-02-15T02:02:25.658Z,2.83
2019-02-15T02:03:25.663Z,2.86
2019-02-15T02:04:25.654Z,2.85
2019-02-15T02:05:25.648Z,2.89
2019-02-15T02:06:25.614Z,2.85
2019-02-15T02:07:25.624Z,2.85
2019-02-15T02:08:25.591Z,2.95
2019-02-15T02:09:25.607Z,3.00
2019-02-15T02:10:25.582Z,3.01
2019-02-15T02:11:25.556Z,2.97
2019-02-15T02:12:25.559Z,3.01
2019-02-15T02:13:25.540Z,3.01
2019-02-15T02:14:25.567Z,2.95
2019-02-15T02:15:25.533Z,3.03
2019-02-15T02:16:25.503Z,3.03
2019-02-15T02:17:25.493Z,3.01
2019-02-15T02:18:25.481Z,2.98
2019-02-15T02:19:25.507Z,3.00
2019-02-15T02:20:25.461Z,3.01
2019-02-15T02:21:25.453Z,3.00
2019-02-15T02:22:25.437Z,2.97
2019-02-15T02:23:25.440Z,2.95
2019-02-15T02:24:25.414Z,3.01
2019-02-15T02:25:25.464Z,3.03
2019-02-15T02:26:25.395Z,2.83
2019-02-15T02:27:25.387Z,2.83
2019-02-15T02:28:25.373Z,2.87
2019-02-15T02:29:25.386Z,2.85
2019-02-15T02:30:25.392Z,2.85
2019-02-15T02:31:25.363Z,2.82
2019-02-15T02:32:25.330Z,2.87
2019-02-15T02:33:25.314Z,2.90
2019-02-15T02:34:25.305Z,2.86
2019-02-15T02:35:25.299Z,2.83
2019-02-15T02:36:25.303Z,2.86
2019-02-15T02:37:25.281Z,2.90
2019-02-15T02:38:25.267Z,2.90
2019-02-15T02:39:25.254Z,2.86
2019-02-15T02:40:25.236Z,2.83
2019-02-15T02:41:25.258Z,2.87
2019-02-15T02:42:25.217Z,2.83
2019-02-15T02:43:25.219Z,2.85
2019-02-15T02:44:25.204Z,2.85
2019-02-15T02:45:25.202Z,2.92
2019-02-15T02:46:25.170Z,2.85
2019-02-15T02:47:25.176Z,2.80
2019-02-15T02:48:25.155Z,2.87
2019-02-15T02:49:25.149Z,2.89
2019-02-15T02:50:25.139Z,2.89
2019-02-15T02:51:25.141Z,2.90
2019-02-15T02:52:25.133Z,2.87
2019-02-15T02:53:25.104Z,2.95
2019-02-15T02:54:25.088Z,2.85
2019-02-15T02:55:25.084Z,2.79
2019-02-15T02:56:25.063Z,2.83
2019-02-15T02:57:25.081Z,2.83
2019-02-15T02:58:25.042Z,2.85
2019-02-15T02:59:25.028Z,2.86
2019-02-15T03:00:33.194Z,2.86
2019-02-15T03:01:26.002Z,2.82
2019-02-15T03:02:25.006Z,2.86
2019-02-15T03:03:25.011Z,2.83
2019-02-15T03:04:24.972Z,2.89
2019-02-15T03:05:24.970Z,2.90
2019-02-15T03:06:24.957Z,2.82
2019-02-15T03:07:24.946Z,2.77
2019-02-15T03:08:24.967Z,2.75
2019-02-15T03:09:24.919Z,2.77
2019-02-15T03:10:24.912Z,2.75
2019-02-15T03:11:24.897Z,2.80
2019-02-15T03:12:24.891Z,2.79
2019-02-15T03:13:24.875Z,2.74
2019-02-15T03:14:24.899Z,2.61
2019-02-15T03:15:24.858Z,2.68
2019-02-15T03:16:25.773Z,2.60
2019-02-15T03:17:24.842Z,2.53
2019-02-15T03:18:24.824Z,2.44
2019-02-15T03:19:24.843Z,2.35
2019-02-15T03:20:31.198Z,2.32
2019-02-15T03:21:25.788Z,2.38
2019-02-15T03:22:24.779Z,2.24
2019-02-15T03:23:24.769Z,2.29
2019-02-15T03:24:24.764Z,2.29
2019-02-15T03:25:24.770Z,2.17
2019-02-15T03:26:24.740Z,2.11
2019-02-15T03:27:24.729Z,2.06
2019-02-15T03:28:24.722Z,2.06
2019-02-15T03:29:24.702Z,2.11
2019-02-15T03:30:24.717Z,2.02
2019-02-15T03:31:24.687Z,2.14
2019-02-15T03:32:24.673Z,2.20
2019-02-15T03:33:24.676Z,2.14
2019-02-15T03:34:24.664Z,2.18
2019-02-15T03:35:24.683Z,2.11
2019-02-15T03:36:24.638Z,2.07
2019-02-15T03:37:24.623Z,2.07
2019-02-15T03:38:24.619Z,2.24
2019-02-15T03:39:24.614Z,2.20
2019-02-15T03:40:24.598Z,2.26
2019-02-15T03:41:24.611Z,2.22
2019-02-15T03:42:24.576Z,2.29
2019-02-15T03:43:24.562Z,2.31
2019-02-15T03:44:24.551Z,2.24
2019-02-15T03:45:24.540Z,2.26
2019-02-15T03:46:24.553Z,2.26
2019-02-15T03:47:24.513Z,2.22
2019-02-15T03:48:24.510Z,2.36
2019-02-15T03:49:24.505Z,2.28
2019-02-15T03:50:24.488Z,2.28
2019-02-15T03:51:24.499Z,2.29
2019-02-15T03:52:24.515Z,2.26
2019-02-15T03:53:24.458Z,2.39
2019-02-15T03:54:24.440Z,2.33
2019-02-15T03:55:24.423Z,2.39
2019-02-15T03:56:24.451Z,2.36
2019-02-15T03:57:24.408Z,2.39
2019-02-15T03:58:24.393Z,2.47
2019-02-15T03:59:24.384Z,2.47
2019-02-15T04:00:24.378Z,2.38
2019-02-15T04:01:24.390Z,2.51
2019-02-15T04:02:24.355Z,2.43
2019-02-15T04:03:24.348Z,2.53
2019-02-15T04:04:24.333Z,2.47
2019-02-15T04:05:24.325Z,2.57
2019-02-15T04:06:24.342Z,2.61
2019-02-15T04:07:24.301Z,2.61
2019-02-15T04:08:24.294Z,2.57
2019-02-15T04:09:24.272Z,2.56
2019-02-15T04:10:24.268Z,2.57
2019-02-15T04:11:24.255Z,2.61
2019-02-15T04:12:24.261Z,2.54
2019-02-15T04:13:24.241Z,2.62
2019-02-15T04:14:32.612Z,2.61
2019-02-15T04:15:25.208Z,2.60
2019-02-15T04:16:24.201Z,2.65
2019-02-15T04:17:24.222Z,2.54
2019-02-15T04:18:24.177Z,2.50
2019-02-15T04:19:24.174Z,2.43
2019-02-15T04:20:24.166Z,2.28
2019-02-15T04:21:24.142Z,2.38
2019-02-15T04:22:24.162Z,2.25
2019-02-15T04:23:24.146Z,2.22
2019-02-15T04:24:24.112Z,2.31
2019-02-15T04:25:24.099Z,2.20
2019-02-15T04:26:24.086Z,2.25
2019-02-15T04:27:24.084Z,2.32
2019-02-15T04:28:24.101Z,2.22
2019-02-15T04:29:24.055Z,2.17
2019-02-15T04:30:24.047Z,2.24
2019-02-15T04:31:24.030Z,2.25
2019-02-15T04:32:24.045Z,2.15
2019-02-15T04:33:24.012Z,2.24
2019-02-15T04:34:24.035Z,2.08
2019-02-15T04:35:24.007Z,2.10
2019-02-15T04:36:23.989Z,2.10
2019-02-15T04:37:23.971Z,2.04
2019-02-15T04:38:23.963Z,2.00
2019-02-15T04:39:23.974Z,1.88
2019-02-15T04:40:23.938Z,1.87
2019-02-15T04:41:23.951Z,1.84
2019-02-15T04:42:23.910Z,1.80
2019-02-15T04:43:23.905Z,1.84
2019-02-15T04:44:23.897Z,1.85
2019-02-15T04:45:23.901Z,1.91
2019-02-15T04:46:23.872Z,1.89
2019-02-15T04:47:23.862Z,2.02
2019-02-15T04:48:23.850Z,1.99
2019-02-15T04:49:23.850Z,2.08
2019-02-15T04:50:23.868Z,2.15
2019-02-15T04:51:23.820Z,2.11
2019-02-15T04:52:23.815Z,2.26
2019-02-15T04:53:23.795Z,2.11
2019-02-15T04:54:23.792Z,2.25
2019-02-15T04:55:23.789Z,2.20
2019-02-15T04:56:23.785Z,2.25
2019-02-15T04:57:23.754Z,2.26
2019-02-15T04:58:23.761Z,2.22
2019-02-15T04:59:23.735Z,2.22
2019-02-15T05:00:23.725Z,2.18
2019-02-15T05:01:23.762Z,2.22
2019-02-15T05:02:23.704Z,2.22
2019-02-15T05:03:23.722Z,2.31
2019-02-15T05:04:23.683Z,2.22
2019-02-15T05:05:23.674Z,2.18
2019-02-15T05:06:23.696Z,2.25
2019-02-15T05:07:23.659Z,2.20
2019-02-15T05:08:23.639Z,2.22
2019-02-15T05:09:24.102Z,2.08
2019-02-15T05:10:23.615Z,1.95
2019-02-15T05:11:23.625Z,1.91
2019-02-15T05:12:23.625Z,1.99
2019-02-15T05:13:23.582Z,1.76
2019-02-15T05:14:23.576Z,1.84
2019-02-15T05:15:23.575Z,1.76
2019-02-15T05:16:23.548Z,1.76
2019-02-15T05:17:23.594Z,1.74
2019-02-15T05:18:23.535Z,1.73
2019-02-15T05:19:23.517Z,1.73
2019-02-15T05:20:23.518Z,1.74
2019-02-15T05:21:23.498Z,1.81
2019-02-15T05:22:23.525Z,1.81
2019-02-15T05:23:23.479Z,1.89
2019-02-15T05:24:23.465Z,1.87
2019-02-15T05:25:23.493Z,1.99
2019-02-15T05:26:23.446Z,1.92
2019-02-15T05:27:23.452Z,2.06
2019-02-15T05:28:23.451Z,2.00
2019-02-15T05:29:23.429Z,2.00
2019-02-15T05:30:23.402Z,2.00
2019-02-15T05:31:23.391Z,2.02
2019-02-15T05:32:23.390Z,1.97
2019-02-15T05:33:23.415Z,2.02
2019-02-15T05:34:23.369Z,2.00
2019-02-15T05:35:23.379Z,2.06
2019-02-15T05:36:23.340Z,1.88
2019-02-15T05:37:23.330Z,1.91
2019-02-15T05:38:23.373Z,1.91
2019-02-15T05:39:23.311Z,1.91
2019-02-15T05:40:23.300Z,1.92
2019-02-15T05:41:23.290Z,1.94
2019-02-15T05:42:23.304Z,1.92
2019-02-15T05:43:23.264Z,1.92
2019-02-15T05:44:23.312Z,1.88
2019-02-15T05:45:23.246Z,1.87
2019-02-15T05:46:23.251Z,1.94
2019-02-15T05:47:23.230Z,1.89
2019-02-15T05:48:23.252Z,2.02
2019-02-15T05:49:23.231Z,2.02
2019-02-15T05:50:23.184Z,2.04
2019-02-15T05:51:23.189Z,2.00
2019-02-15T05:52:23.177Z,2.00
2019-02-15T05:53:23.176Z,1.95
2019-02-15T05:54:23.174Z,2.06
2019-02-15T05:55:23.198Z,2.04
2019-02-15T05:56:23.144Z,2.10
2019-02-15T05:57:23.120Z,2.04
2019-02-15T05:58:23.108Z,2.07
2019-02-15T05:59:23.095Z,2.14
2019-02-15T06:00:23.203Z,2.10
2019-02-15T06:01:23.067Z,2.08
2019-02-15T06:02:23.061Z,2.08
2019-02-15T06:03:23.084Z,2.14
2019-02-15T06:04:23.043Z,2.10
2019-02-15T06:05:23.050Z,2.04
2019-02-15T06:06:23.042Z,2.06
2019-02-15T06:07:23.003Z,1.95
2019-02-15T06:08:22.994Z,1.94
2019-02-15T06:09:22.985Z,1.76
2019-02-15T06:10:22.975Z,1.70
2019-02-15T06:11:22.992Z,1.73
2019-02-15T06:12:22.953Z,1.63
2019-02-15T06:13:22.943Z,1.59
2019-02-15T06:14:22.960Z,1.56
2019-02-15T06:15:22.921Z,1.59
2019-02-15T06:16:22.931Z,1.56
2019-02-15T06:17:22.903Z,1.63
2019-02-15T06:18:22.888Z,1.60
2019-02-15T06:19:22.880Z,1.70
2019-02-15T06:20:22.886Z,1.74
2019-02-15T06:21:22.862Z,1.74
2019-02-15T06:22:22.892Z,1.76
2019-02-15T06:23:22.838Z,1.73
2019-02-15T06:24:22.829Z,1.76
2019-02-15T06:25:22.846Z,1.73
2019-02-15T06:26:22.807Z,1.70
2019-02-15T06:27:22.798Z,1.81
2019-02-15T06:28:22.795Z,1.85
2019-02-15T06:29:22.770Z,1.81
2019-02-15T06:30:22.760Z,1.88
2019-02-15T06:31:22.782Z,1.94
2019-02-15T06:32:22.741Z,1.91
2019-02-15T06:33:22.730Z,2.00
2019-02-15T06:34:22.721Z,2.02
2019-02-15T06:35:22.719Z,1.99
2019-02-15T06:36:22.729Z,2.07
2019-02-15T06:37:22.738Z,2.11
2019-02-15T06:38:22.679Z,2.14
2019-02-15T06:39:22.667Z,2.15
2019-02-15T06:40:22.652Z,2.08
2019-02-15T06:41:22.650Z,2.10
2019-02-15T06:42:22.653Z,2.10
2019-02-15T06:43:22.625Z,2.10
2019-02-15T06:44:22.633Z,2.11
2019-02-15T06:45:25.186Z,2.08
2019-02-15T06:46:22.612Z,2.10
2019-02-15T06:47:22.607Z,2.10
2019-02-15T06:48:22.569Z,2.13
2019-02-15T06:49:22.562Z,2.11
2019-02-15T06:50:22.569Z,2.14
2019-02-15T06:51:22.536Z,2.11
2019-02-15T06:52:22.532Z,2.24
2019-02-15T06:53:22.542Z,2.15
2019-02-15T06:54:22.503Z,2.25
2019-02-15T06:55:22.502Z,2.14
2019-02-15T06:56:22.490Z,2.24
2019-02-15T06:57:22.481Z,2.24
2019-02-15T06:58:22.490Z,2.10
2019-02-15T06:59:22.458Z,2.22
2019-02-15T07:00:22.439Z,2.13
2019-02-15T07:01:22.437Z,2.20
2019-02-15T07:02:22.429Z,2.15
2019-02-15T07:03:22.419Z,2.31
2019-02-15T07:04:22.422Z,2.20
2019-02-15T07:05:22.397Z,2.20
2019-02-15T07:06:22.381Z,2.33
2019-02-15T07:07:22.373Z,2.28
2019-02-15T07:08:22.358Z,2.31
2019-02-15T07:09:22.401Z,2.32
2019-02-15T07:10:22.373Z,2.36
2019-02-15T07:11:22.333Z,2.43
2019-02-15T07:12:22.319Z,2.35
2019-02-15T07:13:22.313Z,2.38
2019-02-15T07:14:22.291Z,2.44
2019-02-15T07:15:22.323Z,2.36
2019-02-15T07:16:22.269Z,2.36
2019-02-15T07:17:22.263Z,2.42
2019-02-15T07:18:22.249Z,2.38
2019-02-15T07:19:22.283Z,2.32
2019-02-15T07:20:22.256Z,2.32
2019-02-15T07:21:22.221Z,2.43
2019-02-15T07:22:22.208Z,2.31
2019-02-15T07:23:22.212Z,2.36
2019-02-15T07:24:22.213Z,2.42
2019-02-15T07:25:22.175Z,2.36
2019-02-15T07:26:22.188Z,2.39
2019-02-15T07:27:22.165Z,2.44
2019-02-15T07:28:22.141Z,2.42
2019-02-15T07:29:22.182Z,2.42
2019-02-15T07:30:22.172Z,2.49
2019-02-15T07:31:22.108Z,2.53
2019-02-15T07:32:22.103Z,2.51
2019-02-15T07:33:22.095Z,2.54
2019-02-15T07:34:22.104Z,2.61
2019-02-15T07:35:22.102Z,2.50
2019-02-15T07:36:22.071Z,2.57
2019-02-15T07:37:22.059Z,2.60
2019-02-15T07:38:22.041Z,2.65
2019-02-15T07:39:22.027Z,2.68
2019-02-15T07:40:22.017Z,2.80
2019-02-15T07:41:22.060Z,2.83
2019-02-15T07:42:21.993Z,2.87
2019-02-15T07:43:21.999Z,2.89
2019-02-15T07:44:21.982Z,2.85
2019-02-15T07:45:22.714Z,2.98
2019-02-15T07:46:21.964Z,2.98
2019-02-15T07:47:21.956Z,3.04
2019-02-15T07:48:21.929Z,3.13
2019-02-15T07:49:26.901Z,3.18
2019-02-15T07:50:22.907Z,3.21
2019-02-15T07:51:21.905Z,3.31
2019-02-15T07:52:21.913Z,3.25
2019-02-15T07:53:21.878Z,3.31
2019-02-15T07:54:21.867Z,3.41
2019-02-15T07:55:21.853Z,3.44
2019-02-15T07:56:21.844Z,3.48
2019-02-15T07:57:21.856Z,3.48
2019-02-15T07:58:21.841Z,3.47
2019-02-15T07:59:21.816Z,3.60
2019-02-15T08:00:21.806Z,3.62
2019-02-15T08:01:21.830Z,3.65
2019-02-15T08:02:21.778Z,3.77
2019-02-15T08:03:21.818Z,3.69
2019-02-15T08:04:21.762Z,3.78
2019-02-15T08:05:23.434Z,3.88
2019-02-15T08:06:21.739Z,3.88
2019-02-15T08:07:21.742Z,3.88
2019-02-15T08:08:21.720Z,3.92
2019-02-15T08:09:21.728Z,3.86
2019-02-15T08:10:21.687Z,3.91
2019-02-15T08:11:21.687Z,3.86
2019-02-15T08:12:21.682Z,4.02
2019-02-15T08:13:21.659Z,4.04
2019-02-15T08:14:21.679Z,3.99
2019-02-15T08:15:21.649Z,4.02
2019-02-15T08:16:21.639Z,4.06
2019-02-15T08:17:21.659Z,4.13
2019-02-15T08:18:21.614Z,4.26
2019-02-15T08:19:22.603Z,4.19
2019-02-15T08:20:21.588Z,4.37
2019-02-15T08:21:21.567Z,4.35
2019-02-15T08:22:22.787Z,4.48
2019-02-15T08:23:21.564Z,4.49
2019-02-15T08:24:21.532Z,4.56
2019-02-15T08:25:21.532Z,4.59
2019-02-15T08:26:21.516Z,4.60
2019-02-15T08:27:21.536Z,4.66
2019-02-15T08:28:21.494Z,4.67
2019-02-15T08:29:21.486Z,4.70
2019-02-15T08:30:22.111Z,4.70
2019-02-15T08:31:21.516Z,4.71
2019-02-15T08:32:21.534Z,4.70
2019-02-15T08:33:21.463Z,4.70
2019-02-15T08:34:21.444Z,4.78
2019-02-15T08:35:21.420Z,4.82
2019-02-15T08:36:21.428Z,4.92
2019-02-15T08:37:21.414Z,5.04
2019-02-15T08:38:21.395Z,4.96
2019-02-15T08:39:21.367Z,5.12
2019-02-15T08:40:21.370Z,5.11
2019-02-15T08:41:21.360Z,5.17
2019-02-15T08:42:21.339Z,5.15
2019-02-15T08:43:21.345Z,5.25
2019-02-15T08:44:21.317Z,5.32
2019-02-15T08:45:21.316Z,5.32
2019-02-15T08:46:21.308Z,5.43
2019-02-15T08:47:21.281Z,5.44
2019-02-15T08:48:21.309Z,5.36
2019-02-15T08:49:21.269Z,5.38
2019-02-15T08:50:21.251Z,5.44
2019-02-15T08:51:21.237Z,5.54
2019-02-15T08:52:21.224Z,5.53
2019-02-15T08:53:21.240Z,5.59
2019-02-15T08:54:21.221Z,5.54
2019-02-15T08:55:21.198Z,5.54
2019-02-15T08:56:21.183Z,5.61
2019-02-15T08:57:21.172Z,5.72
2019-02-15T08:58:21.160Z,5.68
2019-02-15T08:59:21.174Z,5.64
2019-02-15T09:00:21.152Z,5.73
2019-02-15T09:01:21.130Z,5.76
2019-02-15T09:02:21.122Z,5.84
2019-02-15T09:03:22.118Z,5.87
2019-02-15T09:04:21.099Z,5.86
2019-02-15T09:05:21.107Z,5.94
2019-02-15T09:06:21.074Z,5.93
2019-02-15T09:07:21.077Z,5.99
2019-02-15T09:08:21.053Z,6.07
2019-02-15T09:09:21.040Z,6.09
2019-02-15T09:10:21.062Z,6.19
2019-02-15T09:11:21.021Z,6.17
2019-02-15T09:12:21.007Z,6.24
2019-02-15T09:13:21.112Z,6.28
2019-02-15T09:14:21.000Z,6.38
2019-02-15T09:15:20.972Z,6.45
2019-02-15T09:16:20.984Z,6.46
2019-02-15T09:17:20.951Z,6.52
2019-02-15T09:18:20.951Z,6.49
2019-02-15T09:19:20.949Z,6.57
2019-02-15T09:20:20.922Z,6.64
2019-02-15T09:21:20.911Z,6.51
2019-02-15T09:22:20.904Z,6.72
2019-02-15T09:23:20.890Z,6.79
2019-02-15T09:24:20.939Z,6.66
2019-02-15T09:25:20.867Z,6.82
2019-02-15T09:26:20.857Z,6.84
2019-02-15T09:27:20.844Z,6.85
2019-02-15T09:28:20.842Z,6.95
2019-02-15T09:29:20.871Z,6.92
2019-02-15T09:30:20.818Z,6.99
2019-02-15T09:31:20.823Z,7.02
2019-02-15T09:32:20.789Z,7.05
2019-02-15T09:33:20.802Z,7.17
2019-02-15T09:34:20.774Z,7.17
2019-02-15T09:35:20.814Z,7.24
2019-02-15T09:36:20.781Z,7.35
2019-02-15T09:37:20.736Z,7.28
2019-02-15T09:38:20.724Z,7.38
2019-02-15T09:39:20.723Z,7.42
2019-02-15T09:40:20.770Z,7.45
2019-02-15T09:41:20.696Z,7.47
2019-02-15T09:42:20.707Z,7.51
2019-02-15T09:43:20.670Z,7.63
2019-02-15T09:44:20.661Z,7.56
2019-02-15T09:45:20.663Z,7.76
2019-02-15T09:46:20.664Z,7.79
2019-02-15T09:47:20.625Z,7.76
2019-02-15T09:48:20.620Z,7.85
2019-02-15T09:49:22.286Z,7.93
2019-02-15T09:50:20.595Z,7.91
2019-02-15T09:51:20.616Z,7.97
2019-02-15T09:52:20.581Z,8.00
2019-02-15T09:53:20.599Z,8.03
2019-02-15T09:54:20.593Z,8.06
2019-02-15T09:55:20.540Z,8.08
2019-02-15T09:56:20.530Z,8.00
2019-02-15T09:57:20.520Z,8.03
2019-02-15T09:58:21.041Z,8.05
2019-02-15T09:59:20.540Z,8.06
2019-02-15T10:00:20.491Z,8.16
2019-02-15T10:01:20.476Z,8.20
2019-02-15T10:02:20.468Z,8.13
2019-02-15T10:03:20.463Z,8.15
2019-02-15T10:04:20.453Z,8.28
2019-02-15T10:05:20.496Z,8.37
2019-02-15T10:06:20.447Z,8.30
2019-02-15T10:07:20.419Z,8.38
2019-02-15T10:08:20.407Z,8.41
2019-02-15T10:09:20.402Z,8.42
2019-02-15T10:10:20.425Z,8.42
2019-02-15T10:11:20.367Z,8.38
2019-02-15T10:12:20.381Z,8.48
2019-02-15T10:13:20.349Z,8.52
2019-02-15T10:14:20.338Z,8.52
2019-02-15T10:15:20.360Z,8.55
2019-02-15T10:16:28.317Z,8.56
2019-02-15T10:17:21.306Z,8.69
2019-02-15T10:18:20.299Z,8.73
2019-02-15T10:19:22.332Z,8.70
2019-02-15T10:20:20.275Z,8.69
2019-02-15T10:21:20.278Z,8.73
2019-02-15T10:22:20.273Z,8.73
2019-02-15T10:23:20.249Z,8.71
2019-02-15T10:24:20.227Z,8.69
2019-02-15T10:25:20.217Z,8.89
2019-02-15T10:26:20.241Z,8.88
2019-02-15T10:27:20.199Z,8.87
2019-02-15T10:28:20.218Z,9.00
2019-02-15T10:29:20.171Z,8.99
2019-02-15T10:30:20.164Z,8.97
2019-02-15T10:31:20.148Z,8.97
2019-02-15T10:32:20.148Z,8.99
2019-02-15T10:33:20.155Z,9.03
2019-02-15T10:34:20.161Z,9.10
2019-02-15T10:35:20.119Z,9.10
2019-02-15T10:36:20.111Z,9.06
2019-02-15T10:37:20.082Z,9.13
2019-02-15T10:38:20.089Z,9.21
2019-02-15T10:39:20.097Z,9.16
2019-02-15T10:40:20.054Z,9.19
2019-02-15T10:41:20.097Z,9.25
2019-02-15T10:42:20.032Z,9.26
2019-02-15T10:43:20.091Z,9.34
2019-02-15T10:44:20.020Z,9.34
2019-02-15T10:45:20.008Z,9.34
2019-02-15T10:46:19.989Z,9.29
2019-02-15T10:47:25.008Z,9.41
2019-02-15T10:48:21.007Z,9.34
2019-02-15T10:49:19.948Z,9.40
2019-02-15T10:50:19.945Z,9.40
2019-02-15T10:51:19.931Z,9.43
2019-02-15T10:52:19.923Z,9.47
2019-02-15T10:53:19.917Z,9.44
2019-02-15T10:54:19.918Z,9.47
2019-02-15T10:55:19.894Z,9.46
2019-02-15T10:56:19.871Z,9.46
2019-02-15T10:57:19.874Z,9.48
2019-02-15T10:58:19.850Z,9.54
2019-02-15T10:59:19.877Z,9.56
2019-02-15T11:00:19.826Z,9.51
2019-02-15T11:01:19.833Z,9.58
2019-02-15T11:02:19.812Z,9.59
2019-02-15T11:03:19.800Z,9.73
2019-02-15T11:04:19.787Z,9.66
2019-02-15T11:05:19.779Z,9.72
2019-02-15T11:06:19.796Z,9.76
2019-02-15T11:07:19.752Z,9.82
2019-02-15T11:08:19.744Z,9.79
2019-02-15T11:09:19.752Z,9.82
2019-02-15T11:10:19.739Z,9.84
2019-02-15T11:11:19.754Z,9.87
2019-02-15T11:12:19.723Z,9.92
2019-02-15T11:13:19.689Z,9.89
2019-02-15T11:14:19.709Z,9.87
2019-02-15T11:15:19.674Z,9.98
2019-02-15T11:16:19.683Z,9.99
2019-02-15T11:17:19.686Z,10.01
2019-02-15T11:18:19.634Z,10.02
2019-02-15T11:19:19.651Z,10.01
2019-02-15T11:20:19.659Z,10.04
2019-02-15T11:21:19.630Z,10.02
2019-02-15T11:22:19.600Z,10.05
2019-02-15T11:23:19.594Z,10.02
2019-02-15T11:24:19.597Z,10.07
2019-02-15T11:25:19.582Z,10.12
2019-02-15T11:26:24.682Z,10.17
2019-02-15T11:27:20.541Z,10.10
2019-02-15T11:28:19.533Z,10.07
2019-02-15T11:29:19.526Z,10.15
2019-02-15T11:30:19.503Z,10.17
2019-02-15T11:31:19.493Z,10.25
2019-02-15T11:32:19.503Z,10.28
2019-02-15T11:33:19.467Z,10.37
2019-02-15T11:34:19.490Z,10.40
2019-02-15T11:35:19.453Z,10.33
2019-02-15T11:36:19.460Z,10.28
2019-02-15T11:37:19.426Z,10.33
2019-02-15T11:38:19.429Z,10.38
2019-02-15T11:39:19.402Z,10.34
2019-02-15T11:40:19.424Z,10.40
2019-02-15T11:41:19.383Z,10.46
2019-02-15T11:42:19.379Z,10.44
2019-02-15T11:43:19.390Z,10.48
2019-02-15T11:44:19.351Z,10.49
2019-02-15T11:45:19.397Z,10.56
2019-02-15T11:46:19.342Z,10.44
2019-02-15T11:47:19.323Z,10.59
2019-02-15T11:48:19.321Z,10.67
2019-02-15T11:49:19.297Z,10.69
2019-02-15T11:50:19.288Z,10.74
2019-02-15T11:51:19.313Z,10.69
2019-02-15T11:52:19.290Z,10.71
2019-02-15T11:53:19.261Z,10.67
2019-02-15T11:54:23.557Z,10.67
2019-02-15T11:55:19.232Z,10.69
2019-02-15T11:56:19.255Z,10.71
2019-02-15T11:57:19.219Z,10.71
2019-02-15T11:58:19.199Z,10.76
2019-02-15T11:59:19.196Z,10.81
2019-02-15T12:00:21.192Z,10.78
2019-02-15T12:01:19.205Z,10.84
2019-02-15T12:02:19.181Z,10.90
2019-02-15T12:03:19.147Z,10.79
2019-02-15T12:04:19.169Z,10.92
2019-02-15T12:05:19.121Z,10.97
2019-02-15T12:06:19.118Z,10.90
2019-02-15T12:07:19.105Z,10.93
2019-02-15T12:08:19.086Z,11.02
2019-02-15T12:09:19.088Z,11.15
2019-02-15T12:10:19.082Z,11.02
2019-02-15T12:11:19.069Z,11.02
2019-02-15T12:12:19.049Z,11.04
2019-02-15T12:13:19.054Z,11.11
2019-02-15T12:14:19.023Z,11.04
2019-02-15T12:15:19.049Z,11.15
2019-02-15T12:16:19.029Z,11.15
2019-02-15T12:17:18.994Z,11.22
2019-02-15T12:18:18.996Z,11.23
2019-02-15T12:19:18.972Z,11.26
2019-02-15T12:20:18.960Z,11.26
2019-02-15T12:21:18.976Z,11.23
2019-02-15T12:22:18.936Z,11.26
2019-02-15T12:23:18.970Z,11.33
2019-02-15T12:24:18.925Z,11.44
2019-02-15T12:25:18.904Z,11.35
2019-02-15T12:26:18.920Z,11.47
2019-02-15T12:27:18.906Z,11.44
2019-02-15T12:28:18.896Z,11.43
2019-02-15T12:29:18.918Z,11.41
2019-02-15T12:30:18.874Z,11.51
2019-02-15T12:31:18.838Z,11.45
2019-02-15T12:32:18.830Z,11.54
2019-02-15T12:33:18.823Z,11.54
2019-02-15T12:34:18.811Z,11.55
2019-02-15T12:35:18.815Z,11.60
2019-02-15T12:36:18.784Z,11.62
2019-02-15T12:37:18.784Z,11.55
2019-02-15T12:38:18.829Z,11.65
2019-02-15T12:39:18.752Z,11.51
2019-02-15T12:40:18.760Z,11.73
2019-02-15T12:41:18.741Z,11.68
2019-02-15T12:42:18.718Z,11.77
2019-02-15T12:43:18.713Z,11.68
2019-02-15T12:44:18.721Z,11.66
2019-02-15T12:45:18.728Z,11.66
2019-02-15T12:46:18.683Z,11.72
2019-02-15T12:47:18.667Z,11.75
2019-02-15T12:48:18.651Z,11.77
2019-02-15T12:49:18.683Z,11.87
2019-02-15T12:50:18.628Z,11.81
2019-02-15T12:51:18.618Z,11.87
2019-02-15T12:52:18.644Z,11.84
2019-02-15T12:53:18.681Z,11.94
2019-02-15T12:54:18.586Z,11.91
2019-02-15T12:55:18.593Z,11.87
2019-02-15T12:56:18.568Z,11.90
2019-02-15T12:57:18.554Z,11.90
2019-02-15T12:58:18.559Z,11.88
2019-02-15T12:59:18.611Z,11.90
2019-02-15T13:00:18.519Z,11.95
2019-02-15T13:01:18.514Z,11.94
2019-02-15T13:02:18.503Z,11.90
2019-02-15T13:03:18.505Z,12.06
2019-02-15T13:04:18.502Z,12.00
2019-02-15T13:05:18.463Z,12.00
2019-02-15T13:06:18.453Z,12.02
2019-02-15T13:07:18.452Z,12.09
2019-02-15T13:08:18.442Z,11.97
2019-02-15T13:09:18.430Z,12.03
2019-02-15T13:10:18.482Z,12.02
2019-02-15T13:11:18.406Z,12.13
2019-02-15T13:12:18.388Z,12.13
2019-02-15T13:13:18.391Z,12.10
2019-02-15T13:14:18.467Z,12.10